createdAt,value
2023-04-12T00:00:38.128Z,8.82
2023-04-12T00:03:07.646Z,8.83
2023-04-12T00:05:34.568Z,8.83
2023-04-12T00:08:04.930Z,8.92
2023-04-12T00:10:31.358Z,8.81
2023-04-12T00:12:57.806Z,8.78
2023-04-12T00:15:24.314Z,8.75
2023-04-12T00:17:50.778Z,8.69
2023-04-12T00:20:18.208Z,8.76
2023-04-12T00:22:45.110Z,8.77
2023-04-12T00:25:11.896Z,8.55
2023-04-12T00:27:39.133Z,8.50
2023-04-12T00:30:07.433Z,8.67
2023-04-12T00:32:34.053Z,8.56
2023-04-12T00:35:00.590Z,8.55
2023-04-12T00:37:27.086Z,8.47
2023-04-12T00:39:53.506Z,8.46
2023-04-12T00:42:20.062Z,8.54
2023-04-12T00:44:46.614Z,8.43
2023-04-12T00:47:13.222Z,8.46
2023-04-12T00:49:39.652Z,8.54
2023-04-12T00:52:08.610Z,8.46
2023-04-12T00:54:35.072Z,8.47
2023-04-12T00:57:01.874Z,8.45
2023-04-12T00:59:28.338Z,8.38
2023-04-12T01:01:56.131Z,8.37
2023-04-12T01:04:22.874Z,8.33
2023-04-12T01:07:15.219Z,8.28
2023-04-12T01:09:57.623Z,8.21
2023-04-12T01:12:51.664Z,8.20
2023-04-12T01:15:18.628Z,8.27
2023-04-12T01:18:02.812Z,8.20
2023-04-12T01:20:32.612Z,8.23
2023-04-12T01:23:22.142Z,8.20
2023-04-12T01:25:49.358Z,8.20
2023-04-12T01:28:20.971Z,8.23
2023-04-12T01:30:48.052Z,8.20
2023-04-12T01:33:16.039Z,8.22
2023-04-12T01:35:42.850Z,8.25
2023-04-12T01:38:09.639Z,8.25
2023-04-12T01:40:36.078Z,8.29
2023-04-12T01:43:06.458Z,8.34
2023-04-12T01:45:33.335Z,8.26
2023-04-12T01:48:00.417Z,8.25
2023-04-12T01:50:36.441Z,8.22
2023-04-12T01:53:18.531Z,8.19
2023-04-12T01:55:48.264Z,8.29
2023-04-12T01:58:17.890Z,8.28
2023-04-12T02:00:46.342Z,8.29
2023-04-12T02:03:13.706Z,8.27
2023-04-12T02:05:40.587Z,8.31
2023-04-12T02:08:07.339Z,8.38
2023-04-12T02:10:36.477Z,8.37
2023-04-12T02:13:03.666Z,8.37
2023-04-12T02:15:30.305Z,8.31
2023-04-12T02:17:59.292Z,8.36
2023-04-12T02:20:27.049Z,8.27
2023-04-12T02:22:54.155Z,8.25
2023-04-12T02:25:20.948Z,8.24
2023-04-12T02:27:48.713Z,8.33
2023-04-12T02:30:15.625Z,8.25
2023-04-12T02:32:45.166Z,8.36
2023-04-12T02:35:18.555Z,8.33
2023-04-12T02:37:49.428Z,8.31
2023-04-12T02:40:16.108Z,8.37
2023-04-12T02:42:45.464Z,8.32
2023-04-12T02:45:11.985Z,8.34
2023-04-12T02:47:38.443Z,8.46
2023-04-12T02:50:05.634Z,8.45
2023-04-12T02:52:33.060Z,8.52
2023-04-12T02:54:59.590Z,8.48
2023-04-12T02:57:26.243Z,8.42
2023-04-12T02:59:55.531Z,8.44
2023-04-12T03:02:22.733Z,8.46
2023-04-12T03:04:51.941Z,8.48
2023-04-12T03:07:19.509Z,8.44
2023-04-12T03:09:47.680Z,8.52
2023-04-12T03:12:15.418Z,8.44
2023-04-12T03:14:42.351Z,8.37
2023-04-12T03:17:09.193Z,8.26
2023-04-12T03:19:36.707Z,8.41
2023-04-12T03:22:04.412Z,8.35
2023-04-12T03:24:34.576Z,8.33
2023-04-12T03:27:02.782Z,8.33
2023-04-12T03:29:32.448Z,8.24
2023-04-12T03:31:59.556Z,8.26
2023-04-12T03:34:27.835Z,8.28
2023-04-12T03:36:55.788Z,8.34
2023-04-12T03:39:22.893Z,8.29
2023-04-12T03:41:49.597Z,8.40
2023-04-12T03:44:16.274Z,8.42
2023-04-12T03:46:42.779Z,8.38
2023-04-12T03:49:09.283Z,8.33
2023-04-12T03:51:35.806Z,8.30
2023-04-12T03:54:02.823Z,8.26
2023-04-12T03:56:29.328Z,8.25
2023-04-12T03:58:55.993Z,8.29
2023-04-12T04:01:23.636Z,8.31
2023-04-12T04:03:50.807Z,8.26
2023-04-12T04:06:17.537Z,8.26
2023-04-12T04:08:44.962Z,8.36
2023-04-12T04:11:12.775Z,8.40
2023-04-12T04:13:39.440Z,8.42
2023-04-12T04:16:06.818Z,8.40
2023-04-12T04:18:34.688Z,8.45
2023-04-12T04:21:01.216Z,8.46
2023-04-12T04:23:29.147Z,8.44
2023-04-12T04:25:55.830Z,8.34
2023-04-12T04:28:22.229Z,8.42
2023-04-12T04:30:48.692Z,8.33
2023-04-12T04:33:18.622Z,8.33
2023-04-12T04:35:45.095Z,8.44
2023-04-12T04:38:11.770Z,8.40
2023-04-12T04:40:38.496Z,8.38
2023-04-12T04:43:06.448Z,8.36
2023-04-12T04:45:36.358Z,8.38
2023-04-12T04:48:03.601Z,8.37
2023-04-12T04:50:30.360Z,8.39
2023-04-12T04:52:56.778Z,8.37
2023-04-12T04:55:24.877Z,8.32
2023-04-12T04:57:51.869Z,8.32
2023-04-12T05:00:18.665Z,8.35
2023-04-12T05:02:45.699Z,8.42
2023-04-12T05:05:22.929Z,8.40
2023-04-12T05:07:49.570Z,8.41
2023-04-12T05:10:16.139Z,8.43
2023-04-12T05:12:42.547Z,8.43
2023-04-12T05:15:12.114Z,8.46
2023-04-12T05:17:38.917Z,8.49
2023-04-12T05:20:07.694Z,8.54
2023-04-12T05:22:35.547Z,8.53
2023-04-12T05:25:02.610Z,8.52
2023-04-12T05:27:30.066Z,8.50
2023-04-12T05:29:57.338Z,8.51
2023-04-12T05:32:26.820Z,8.53
2023-04-12T05:34:53.308Z,8.55
2023-04-12T05:37:19.797Z,8.59
2023-04-12T05:39:46.175Z,8.59
2023-04-12T05:42:12.694Z,8.60
2023-04-12T05:44:39.255Z,8.63
2023-04-12T05:47:06.023Z,8.61
2023-04-12T05:49:32.505Z,8.62
2023-04-12T05:51:59.163Z,8.62
2023-04-12T05:54:25.873Z,8.65
2023-04-12T05:56:54.321Z,8.69
2023-04-12T05:59:20.787Z,8.72
2023-04-12T06:01:47.277Z,8.67
2023-04-12T06:04:14.945Z,8.73
2023-04-12T06:06:41.662Z,8.77
2023-04-12T06:09:08.070Z,8.71
2023-04-12T06:11:34.466Z,8.74
2023-04-12T06:14:01.450Z,8.73
2023-04-12T06:16:28.033Z,8.72
2023-04-12T06:18:54.522Z,8.76
2023-04-12T06:21:21.200Z,8.82
2023-04-12T06:23:47.642Z,8.84
2023-04-12T06:26:14.501Z,8.84
2023-04-12T06:28:41.532Z,8.84
2023-04-12T06:31:07.961Z,8.87
2023-04-12T06:33:36.596Z,8.93
2023-04-12T06:36:03.484Z,8.94
2023-04-12T06:38:30.002Z,8.97
2023-04-12T06:40:56.496Z,9.00
2023-04-12T06:43:23.294Z,9.03
2023-04-12T06:45:50.269Z,9.00
2023-04-12T06:48:16.758Z,9.03
2023-04-12T06:50:44.657Z,9.07
2023-04-12T06:53:13.384Z,9.08
2023-04-12T06:55:40.628Z,9.10
2023-04-12T06:58:07.148Z,9.08
2023-04-12T07:00:33.671Z,9.14
2023-04-12T07:03:00.279Z,9.14
2023-04-12T07:05:26.899Z,9.23
2023-04-12T07:07:53.317Z,9.22
2023-04-12T07:10:19.697Z,9.22
2023-04-12T07:12:46.666Z,9.24
2023-04-12T07:15:13.088Z,9.22
2023-04-12T07:17:39.534Z,9.22
2023-04-12T07:20:06.243Z,9.29
2023-04-12T07:22:33.081Z,9.31
2023-04-12T07:24:59.536Z,9.32
2023-04-12T07:27:25.989Z,9.33
2023-04-12T07:29:53.293Z,9.34
2023-04-12T07:32:19.803Z,9.42
2023-04-12T07:34:46.611Z,9.42
2023-04-12T07:37:13.170Z,9.49
2023-04-12T07:39:40.920Z,9.53
2023-04-12T07:42:07.474Z,9.59
2023-04-12T07:44:35.542Z,9.64
2023-04-12T07:47:03.603Z,9.65
2023-04-12T07:49:30.044Z,9.67
2023-04-12T07:51:57.406Z,9.70
2023-04-12T07:54:27.347Z,9.75
2023-04-12T07:57:01.422Z,9.75
2023-04-12T07:59:28.133Z,9.78
2023-04-12T08:01:54.566Z,9.79
2023-04-12T08:04:21.456Z,9.85
2023-04-12T08:06:48.027Z,9.84
2023-04-12T08:09:14.512Z,9.88
2023-04-12T08:11:40.950Z,9.92
2023-04-12T08:14:07.457Z,9.96
2023-04-12T08:16:34.712Z,9.97
2023-04-12T08:19:01.544Z,9.97
2023-04-12T08:21:27.923Z,10.02
2023-04-12T08:23:54.336Z,10.02
2023-04-12T08:26:21.134Z,10.06
2023-04-12T08:28:48.560Z,10.06
2023-04-12T08:31:15.638Z,10.08
2023-04-12T08:33:42.114Z,10.08
2023-04-12T08:36:08.998Z,10.18
2023-04-12T08:38:45.042Z,10.17
2023-04-12T08:41:13.525Z,10.19
2023-04-12T08:43:44.031Z,10.25
2023-04-12T08:46:10.718Z,10.33
2023-04-12T08:48:37.397Z,10.26
2023-04-12T08:51:04.366Z,10.32
2023-04-12T08:53:31.698Z,10.31
2023-04-12T08:55:58.114Z,10.33
2023-04-12T08:58:24.916Z,10.36
2023-04-12T09:00:51.903Z,10.39
2023-04-12T09:03:18.911Z,10.42
2023-04-12T09:05:45.682Z,10.40
2023-04-12T09:08:12.319Z,10.49
2023-04-12T09:10:39.029Z,10.46
2023-04-12T09:13:05.964Z,10.52
2023-04-12T09:15:33.944Z,10.47
2023-04-12T09:18:11.560Z,10.54
2023-04-12T09:20:38.912Z,10.58
2023-04-12T09:23:37.600Z,10.58
2023-04-12T09:26:04.544Z,10.56
2023-04-12T09:28:31.367Z,10.60
2023-04-12T09:30:59.302Z,10.63
2023-04-12T09:33:39.434Z,10.67
2023-04-12T09:36:09.322Z,10.64
2023-04-12T09:38:39.312Z,10.66
2023-04-12T09:41:19.693Z,10.65
2023-04-12T09:43:47.196Z,10.68
2023-04-12T09:46:14.501Z,10.72
2023-04-12T09:48:41.850Z,10.71
2023-04-12T09:51:08.381Z,10.77
2023-04-12T09:53:38.937Z,10.81
2023-04-12T09:56:06.416Z,10.80
2023-04-12T09:58:34.011Z,10.87
2023-04-12T10:01:03.360Z,10.85
2023-04-12T10:03:30.490Z,10.88
2023-04-12T10:05:57.193Z,10.92
2023-04-12T10:08:24.112Z,10.95
2023-04-12T10:10:52.162Z,11.02
2023-04-12T10:13:18.695Z,11.08
2023-04-12T10:15:45.857Z,11.12
2023-04-12T10:18:14.117Z,11.16
2023-04-12T10:20:43.422Z,11.20
2023-04-12T10:23:10.684Z,11.25
2023-04-12T10:25:39.124Z,11.28
2023-04-12T10:28:17.472Z,11.34
2023-04-12T10:30:44.625Z,11.36
2023-04-12T10:33:13.478Z,11.41
2023-04-12T10:36:00.828Z,11.37
2023-04-12T10:38:33.578Z,11.43
2023-04-12T10:41:07.729Z,11.37
2023-04-12T10:43:34.349Z,11.37
2023-04-12T10:46:04.972Z,11.40
2023-04-12T10:48:39.227Z,11.39
2023-04-12T10:51:30.746Z,11.39
2023-04-12T10:54:16.502Z,11.25
2023-04-12T10:56:44.289Z,11.18
2023-04-12T10:59:11.795Z,11.06
2023-04-12T11:01:39.481Z,11.13
2023-04-12T11:04:10.488Z,11.30
2023-04-12T11:06:52.973Z,11.35
2023-04-12T11:09:20.612Z,11.52
2023-04-12T11:11:47.374Z,11.54
2023-04-12T11:14:16.804Z,11.60
2023-04-12T11:17:08.323Z,11.68
2023-04-12T11:19:49.409Z,11.68
2023-04-12T11:22:17.931Z,11.73
2023-04-12T11:24:52.891Z,11.70
2023-04-12T11:27:20.801Z,11.69
2023-04-12T11:29:52.604Z,11.65
2023-04-12T11:32:20.990Z,11.48
2023-04-12T11:34:47.744Z,11.54
2023-04-12T11:37:14.644Z,11.48
2023-04-12T11:39:45.174Z,11.42
2023-04-12T11:42:19.625Z,11.38
2023-04-12T11:47:17.705Z,11.27
2023-04-12T11:49:55.586Z,11.32
2023-04-12T11:52:28.100Z,11.23
2023-04-12T11:54:58.682Z,11.43
2023-04-12T11:57:25.120Z,11.55
2023-04-12T11:59:52.213Z,11.68
2023-04-12T12:02:23.407Z,11.98
2023-04-12T12:04:51.703Z,12.07
2023-04-12T12:07:19.583Z,12.20
2023-04-12T12:09:49.401Z,12.59
2023-04-12T12:12:16.374Z,12.65
2023-04-12T12:14:44.686Z,13.01
2023-04-12T12:17:12.936Z,13.25
2023-04-12T12:19:41.261Z,12.95
2023-04-12T12:22:18.972Z,13.02
2023-04-12T12:24:59.113Z,12.84
2023-04-12T12:27:34.423Z,12.74
2023-04-12T12:30:02.303Z,12.71
2023-04-12T12:32:39.353Z,12.48
2023-04-12T12:35:10.532Z,12.31
2023-04-12T12:37:36.965Z,12.33
2023-04-12T12:40:13.838Z,12.36
2023-04-12T12:42:46.800Z,12.36
2023-04-12T12:45:13.694Z,12.27
2023-04-12T12:48:02.863Z,12.34
2023-04-12T12:50:34.474Z,12.42
2023-04-12T12:53:01.478Z,12.59
2023-04-12T12:55:29.099Z,12.46
2023-04-12T12:58:07.575Z,12.54
2023-04-12T13:00:35.230Z,12.47
2023-04-12T13:03:02.260Z,12.35
2023-04-12T13:05:29.307Z,12.36
2023-04-12T13:07:56.018Z,12.32
2023-04-12T13:10:23.466Z,12.30
2023-04-12T13:12:49.893Z,12.17
2023-04-12T13:17:45.931Z,12.08
2023-04-12T13:20:12.453Z,12.13
2023-04-12T13:22:38.924Z,12.10
2023-04-12T13:25:05.854Z,12.08
2023-04-12T13:27:32.305Z,11.98
2023-04-12T13:29:59.469Z,11.96
2023-04-12T13:32:26.030Z,11.96
2023-04-12T13:34:52.550Z,11.76
2023-04-12T13:37:18.935Z,11.75
2023-04-12T13:39:45.481Z,11.59
2023-04-12T13:42:12.017Z,11.74
2023-04-12T13:44:38.458Z,11.84
2023-04-12T13:47:04.919Z,11.90
2023-04-12T13:49:31.353Z,12.21
2023-04-12T13:51:57.854Z,12.52
2023-04-12T13:54:24.367Z,12.69
2023-04-12T13:56:51.162Z,12.83
2023-04-12T13:59:17.650Z,12.88
2023-04-12T14:01:44.426Z,13.05
2023-04-12T14:04:11.134Z,13.17
2023-04-12T14:06:38.663Z,13.14
2023-04-12T14:09:08.868Z,13.42
2023-04-12T14:11:49.130Z,13.49
2023-04-12T14:14:16.823Z,13.69
2023-04-12T14:16:44.712Z,13.64
2023-04-12T14:19:11.193Z,13.62
2023-04-12T14:21:37.713Z,13.93
2023-04-12T14:24:04.138Z,13.94
2023-04-12T14:26:30.725Z,13.99
2023-04-12T14:28:57.583Z,14.15
2023-04-12T14:31:24.498Z,13.77
2023-04-12T14:33:52.044Z,13.95
2023-04-12T14:36:18.448Z,13.51
2023-04-12T14:38:44.943Z,13.46
2023-04-12T14:41:12.301Z,13.26
2023-04-12T14:43:38.993Z,13.38
2023-04-12T14:46:05.854Z,13.35
2023-04-12T14:48:32.435Z,13.15
2023-04-12T14:50:58.878Z,13.41
2023-04-12T14:53:25.452Z,13.83
2023-04-12T14:55:51.903Z,13.99
2023-04-12T14:58:18.319Z,13.91
2023-04-12T15:00:44.719Z,13.66
2023-04-12T15:03:11.489Z,13.71
2023-04-12T15:05:38.064Z,13.52
2023-04-12T15:08:04.657Z,13.46
2023-04-12T15:10:31.518Z,13.34
2023-04-12T15:13:00.971Z,13.37
2023-04-12T15:15:27.599Z,13.21
2023-04-12T15:17:54.080Z,13.22
2023-04-12T15:20:20.603Z,13.31
2023-04-12T15:22:47.092Z,13.29
2023-04-12T15:25:13.568Z,13.12
2023-04-12T15:27:40.087Z,13.51
2023-04-12T15:30:09.648Z,13.69
2023-04-12T15:32:42.377Z,14.05
2023-04-12T15:35:25.234Z,14.06
2023-04-12T15:37:54.338Z,14.41
2023-04-12T15:40:22.622Z,14.32
2023-04-12T15:42:49.291Z,14.32
2023-04-12T15:45:16.125Z,14.23
2023-04-12T15:47:42.678Z,14.33
2023-04-12T15:50:09.566Z,13.88
2023-04-12T15:52:36.389Z,13.88
2023-04-12T15:55:05.011Z,13.85
2023-04-12T15:57:31.500Z,13.74
2023-04-12T15:59:59.834Z,13.57
2023-04-12T16:02:26.815Z,13.40
2023-04-12T16:04:55.879Z,13.39
2023-04-12T16:07:22.552Z,13.44
2023-04-12T16:09:48.996Z,13.52
2023-04-12T16:12:15.541Z,13.48
2023-04-12T16:14:42.139Z,13.49
2023-04-12T16:17:08.559Z,13.74
2023-04-12T16:19:35.005Z,13.66
2023-04-12T16:22:01.773Z,13.81
2023-04-12T16:24:28.580Z,13.85
2023-04-12T16:26:55.086Z,13.74
2023-04-12T16:29:21.585Z,13.69
2023-04-12T16:31:48.027Z,13.71
2023-04-12T16:34:15.677Z,13.37
2023-04-12T16:36:42.983Z,13.28
2023-04-12T16:39:11.325Z,13.17
2023-04-12T16:41:37.807Z,13.07
2023-04-12T16:44:04.254Z,13.01
2023-04-12T16:46:30.937Z,12.89
2023-04-12T16:48:59.189Z,12.87
2023-04-12T16:51:26.972Z,12.78
2023-04-12T16:53:53.434Z,12.76
2023-04-12T16:56:20.083Z,12.66
2023-04-12T16:58:48.788Z,12.61
2023-04-12T17:01:17.030Z,12.60
2023-04-12T17:03:44.262Z,12.59
2023-04-12T17:06:10.860Z,12.52
2023-04-12T17:08:37.746Z,12.51
2023-04-12T17:11:04.275Z,12.36
2023-04-12T17:13:31.151Z,12.30
2023-04-12T17:15:57.743Z,12.29
2023-04-12T17:18:24.146Z,12.21
2023-04-12T17:20:50.680Z,11.21
2023-04-12T17:23:17.232Z,10.31
2023-04-12T17:25:44.057Z,10.03
2023-04-12T17:28:10.584Z,9.92
2023-04-12T17:30:37.146Z,9.95
2023-04-12T17:33:03.694Z,9.78
2023-04-12T17:35:30.252Z,10.00
2023-04-12T17:37:57.074Z,9.87
2023-04-12T17:40:23.510Z,9.85
2023-04-12T17:42:50.015Z,9.64
2023-04-12T17:45:18.296Z,9.83
2023-04-12T17:47:44.733Z,9.72
2023-04-12T17:50:11.630Z,9.76
2023-04-12T17:52:38.346Z,9.71
2023-04-12T17:55:05.751Z,9.68
2023-04-12T17:57:32.543Z,9.40
2023-04-12T17:59:58.976Z,9.74
2023-04-12T18:02:25.975Z,9.35
2023-04-12T18:04:52.608Z,9.16
2023-04-12T18:07:19.187Z,9.11
2023-04-12T18:09:45.840Z,9.33
2023-04-12T18:12:13.097Z,9.03
2023-04-12T18:14:42.387Z,9.13
2023-04-12T18:17:08.807Z,9.14
2023-04-12T18:19:36.296Z,8.80
2023-04-12T18:22:02.762Z,8.68
2023-04-12T18:24:29.186Z,8.66
2023-04-12T18:26:56.980Z,8.82
2023-04-12T18:29:23.375Z,8.54
2023-04-12T18:31:49.825Z,8.58
2023-04-12T18:34:18.900Z,8.47
2023-04-12T18:36:45.570Z,8.61
2023-04-12T18:39:12.303Z,8.36
2023-04-12T18:41:40.813Z,8.50
2023-04-12T18:44:13.199Z,8.34
2023-04-12T18:46:40.412Z,8.12
2023-04-12T18:49:08.963Z,8.43
2023-04-12T18:51:36.018Z,8.45
2023-04-12T18:54:02.471Z,8.50
2023-04-12T18:56:29.011Z,8.49
2023-04-12T18:58:56.570Z,8.60
2023-04-12T19:01:24.746Z,8.33
2023-04-12T19:03:51.805Z,8.18
2023-04-12T19:06:18.468Z,8.31
2023-04-12T19:08:45.120Z,8.22
2023-04-12T19:11:11.691Z,8.20
2023-04-12T19:13:38.428Z,7.94
2023-04-12T19:16:07.718Z,7.80
2023-04-12T19:18:34.803Z,7.69
2023-04-12T19:21:02.533Z,7.72
2023-04-12T19:23:29.573Z,7.85
2023-04-12T19:25:58.434Z,7.72
2023-04-12T19:28:25.458Z,7.78
2023-04-12T19:30:51.945Z,7.73
2023-04-12T19:33:18.793Z,7.72
2023-04-12T19:35:45.220Z,7.54
2023-04-12T19:38:11.949Z,7.53
2023-04-12T19:40:38.363Z,7.61
2023-04-12T19:43:04.789Z,7.57
2023-04-12T19:45:31.316Z,7.46
2023-04-12T19:47:57.985Z,7.52
2023-04-12T19:50:24.962Z,7.46
2023-04-12T19:52:51.723Z,7.54
2023-04-12T19:55:21.286Z,7.53
2023-04-12T19:57:47.863Z,7.41
2023-04-12T20:00:22.585Z,7.57
2023-04-12T20:02:50.441Z,7.60
2023-04-12T20:05:17.113Z,7.63
2023-04-12T20:07:46.961Z,7.60
2023-04-12T20:10:13.668Z,7.63
2023-04-12T20:12:40.126Z,7.63
2023-04-12T20:15:11.786Z,7.59
2023-04-12T20:17:42.670Z,7.52
2023-04-12T20:20:14.353Z,7.50
2023-04-12T20:22:42.292Z,7.44
2023-04-12T20:25:12.962Z,7.53
2023-04-12T20:27:39.453Z,7.43
2023-04-12T20:30:06.768Z,7.45
2023-04-12T20:32:35.646Z,7.49
2023-04-12T20:35:05.676Z,7.35
2023-04-12T20:37:32.610Z,7.41
2023-04-12T20:39:59.424Z,7.42
2023-04-12T20:42:25.847Z,7.37
2023-04-12T20:44:52.647Z,7.42
2023-04-12T20:47:19.722Z,7.36
2023-04-12T20:49:46.204Z,7.43
2023-04-12T20:52:16.642Z,7.34
2023-04-12T20:54:45.423Z,7.33
2023-04-12T20:57:13.971Z,7.30
2023-04-12T20:59:40.398Z,7.36
2023-04-12T21:02:07.193Z,7.33
2023-04-12T21:04:36.190Z,7.30
2023-04-12T21:07:03.152Z,7.31
2023-04-12T21:09:29.855Z,7.26
2023-04-12T21:11:57.812Z,7.30
2023-04-12T21:14:24.320Z,7.23
2023-04-12T21:16:50.826Z,7.17
2023-04-12T21:19:18.469Z,7.07
2023-04-12T21:21:45.912Z,7.12
2023-04-12T21:24:12.470Z,7.08
2023-04-12T21:26:39.299Z,7.15
2023-04-12T21:29:05.738Z,7.09
2023-04-12T21:31:32.450Z,7.09
2023-04-12T21:33:59.302Z,7.03
2023-04-12T21:36:30.305Z,7.09
2023-04-12T21:38:59.358Z,7.12
2023-04-12T21:41:26.009Z,7.02
2023-04-12T21:43:52.727Z,7.10
2023-04-12T21:46:19.754Z,6.97
2023-04-12T21:48:46.334Z,6.95
2023-04-12T21:51:12.783Z,6.92
2023-04-12T21:53:40.365Z,6.94
2023-04-12T21:56:07.281Z,6.85
2023-04-12T21:58:34.011Z,6.71
2023-04-12T22:01:00.459Z,6.76
2023-04-12T22:03:27.221Z,6.73
2023-04-12T22:06:02.941Z,6.79
2023-04-12T22:08:32.672Z,6.90
2023-04-12T22:11:00.238Z,6.79
2023-04-12T22:13:26.977Z,6.82
2023-04-12T22:15:53.433Z,6.85
2023-04-12T22:18:20.382Z,6.83
2023-04-12T22:20:47.810Z,6.87
2023-04-12T22:23:17.736Z,6.93
2023-04-12T22:25:45.226Z,6.91
2023-04-12T22:28:12.162Z,6.96
2023-04-12T22:30:38.741Z,6.94
2023-04-12T22:33:05.317Z,7.02
2023-04-12T22:35:31.790Z,6.96
2023-04-12T22:37:58.210Z,7.03
2023-04-12T22:40:24.675Z,6.97
2023-04-12T22:42:51.055Z,7.02
2023-04-12T22:45:17.728Z,7.05
2023-04-12T22:47:45.047Z,7.01
2023-04-12T22:50:12.816Z,7.08
2023-04-12T22:52:39.921Z,7.02
2023-04-12T22:55:07.940Z,6.98
2023-04-12T22:57:36.345Z,6.87
2023-04-12T23:00:05.717Z,6.88
2023-04-12T23:02:33.344Z,6.91
2023-04-12T23:05:00.576Z,6.84
2023-04-12T23:07:30.338Z,6.87
2023-04-12T23:09:57.582Z,6.91
2023-04-12T23:12:24.703Z,6.90
2023-04-12T23:14:51.251Z,6.88
2023-04-12T23:17:19.793Z,6.94
2023-04-12T23:19:46.464Z,6.94
2023-04-12T23:22:22.362Z,7.01
2023-04-12T23:24:50.962Z,7.00
2023-04-12T23:27:18.251Z,6.89
2023-04-12T23:29:44.722Z,6.97
2023-04-12T23:32:12.060Z,6.92
2023-04-12T23:34:38.482Z,6.84
2023-04-12T23:37:04.936Z,6.92
2023-04-12T23:39:31.320Z,6.90
2023-04-12T23:41:57.702Z,6.91
2023-04-12T23:44:24.938Z,6.86
2023-04-12T23:46:51.508Z,6.88
2023-04-12T23:49:17.980Z,6.86
2023-04-12T23:51:44.511Z,6.81
2023-04-12T23:54:11.177Z,6.84
2023-04-12T23:56:37.581Z,6.81
2023-04-12T23:59:04.041Z,6.82
